Time;durP1;ratioP1;P1;durP2;ratioP2;P2;SDS_P1;SDS_P2;PMS_P1;PMS_P2;Temp;Humidity;BMP_temperature;BMP_pressure;BME280_temperature;BME280_humidity;BME280_pressure;Samples;Min_cycle;Max_cycle;Signal;HPM_P1;HPM_P2
2021/01/13 00:00:23;;;;;;;1999.90;999.90;;;;;;;-2.61;84.32;100510.23;1842054;77;21114;-72
2021/01/13 00:05:29;;;;;;;1999.90;999.90;;;;;;;-2.53;84.27;100508.59;1876696;75;27601;-68
2021/01/13 00:07:57;;;;;;;1999.90;999.90;;;;;;;-2.57;84.19;100506.02;1849748;77;21261;-73
2021/01/13 00:10:25;;;;;;;1999.90;999.90;;;;;;;-2.61;83.84;100499.39;1854258;77;21445;-69
2021/01/13 00:12:53;;;;;;;1999.90;999.90;;;;;;;-2.61;84.03;100488.56;1852326;77;21059;-69
2021/01/13 00:15:21;;;;;;;1999.90;999.90;;;;;;;-2.60;84.29;100475.31;1857816;77;20984;-72
2021/01/13 00:17:50;;;;;;;1999.90;999.90;;;;;;;-2.60;84.56;100459.05;1789241;80;20940;-68
2021/01/13 00:20:18;;;;;;;1999.90;999.90;;;;;;;-2.61;84.51;100456.05;1808863;78;20939;-69
2021/01/13 00:22:46;;;;;;;1999.90;999.90;;;;;;;-2.61;84.57;100443.85;1789300;79;22346;-69
2021/01/13 00:25:18;;;;;;;1999.90;999.90;;;;;;;-2.61;84.38;100432.48;1806276;78;21131;-71
2021/01/13 00:27:46;;;;;;;1999.90;999.90;;;;;;;-2.64;84.28;100426.69;1789412;79;20993;-70
2021/01/13 00:30:15;;;;;;;1999.90;999.90;;;;;;;-2.64;84.27;100422.10;1808559;78;20985;-71
2021/01/13 00:32:44;;;;;;;1999.90;999.90;;;;;;;-2.63;84.30;100435.12;1788839;79;20986;-73
2021/01/13 00:35:14;;;;;;;1999.90;999.90;;;;;;;-2.64;84.54;100434.81;1765011;80;21202;-73
2021/01/13 00:37:50;;;;;;;1999.90;999.90;;;;;;;-2.60;84.42;100426.54;1815356;76;28596;-73
2021/01/13 00:40:17;;;;;;;1999.90;999.90;;;;;;;-2.67;84.56;100425.78;1782192;79;21571;-74
2021/01/13 00:42:47;;;;;;;1999.90;999.90;;;;;;;-2.70;84.50;100418.94;1783854;79;21213;-70
2021/01/13 00:45:19;;;;;;;1999.90;999.90;;;;;;;-2.70;84.83;100401.33;1754007;79;21006;-73
2021/01/13 00:47:50;;;;;;;1999.90;999.90;;;;;;;-2.68;84.81;100403.81;1782707;79;20964;-70
2021/01/13 00:50:18;;;;;;;1999.90;999.90;;;;;;;-2.71;84.80;100388.84;1782732;79;20960;-70
2021/01/13 00:52:49;;;;;;;1999.90;999.90;;;;;;;-2.71;84.75;100379.36;1782952;79;20980;-75
2021/01/13 00:55:17;;;;;;;1999.90;999.90;;;;;;;-2.71;85.03;100380.71;1787808;79;21436;-70
2021/01/13 00:57:48;;;;;;;1999.90;999.90;;;;;;;-2.71;85.20;100385.30;1782236;79;20968;-70
2021/01/13 01:00:17;;;;;;;1999.90;999.90;;;;;;;-2.71;85.21;100381.23;1782326;79;21119;-72
2021/01/13 01:02:45;;;;;;;1999.90;999.90;;;;;;;-2.69;85.29;100375.06;1780394;79;21087;-73
2021/01/13 01:05:13;;;;;;;1999.90;999.90;;;;;;;-2.67;85.23;100377.02;1782341;79;21560;-74
2021/01/13 01:07:44;;;;;;;1999.90;999.90;;;;;;;-2.68;85.54;100370.78;1777285;79;22110;-70
2021/01/13 01:10:23;;;;;;;1999.90;999.90;;;;;;;-2.70;86.17;100368.00;1783402;79;20991;-70
2021/01/13 01:12:51;;;;;;;1999.90;999.90;;;;;;;-2.71;86.42;100365.81;1780283;79;20961;-74
2021/01/13 01:15:19;;;;;;;1999.90;999.90;;;;;;;-2.72;87.04;100346.55;1784260;79;21115;-70
2021/01/13 01:17:47;;;;;;;1999.90;999.90;;;;;;;-2.74;87.69;100329.70;1782923;79;21127;-70
2021/01/13 01:20:16;;;;;;;1999.90;999.90;;;;;;;-2.78;89.08;100319.55;1783553;79;21388;-70
2021/01/13 01:23:01;;;;;;;1999.90;999.90;;;;;;;-2.84;90.39;100312.33;1782815;79;21079;-74
2021/01/13 01:25:30;;;;;;;1999.90;999.90;;;;;;;-2.94;91.71;100305.56;1782417;79;21093;-74
2021/01/13 01:27:59;;;;;;;1999.90;999.90;;;;;;;-3.01;92.57;100298.04;1782594;79;21075;-74
2021/01/13 01:30:29;;;;;;;1999.90;999.90;;;;;;;-3.04;93.29;100285.48;1781263;79;21148;-70
2021/01/13 01:32:58;;;;;;;1999.90;999.90;;;;;;;-3.11;94.03;100265.25;1782526;79;21357;-75
2021/01/13 01:35:26;;;;;;;1999.90;999.90;;;;;;;-3.15;94.57;100253.23;1782977;79;21008;-74
2021/01/13 01:37:54;;;;;;;1999.90;999.90;;;;;;;-3.18;95.15;100234.73;1796747;78;21161;-73
2021/01/13 01:40:23;;;;;;;1999.90;999.90;;;;;;;-3.19;95.66;100218.19;1798384;78;20950;-74
2021/01/13 01:42:54;;;;;;;1999.90;999.90;;;;;;;-3.24;95.96;100205.86;1797593;78;21517;-74
2021/01/13 01:45:29;;;;;;;1999.90;999.90;;;;;;;-3.27;96.23;100212.55;1798765;78;22045;-70
2021/01/13 01:48:23;;;;;;;1999.90;999.90;;;;;;;-3.29;96.60;100223.31;1796372;78;21114;-70
2021/01/13 01:50:52;;;;;;;1999.90;999.90;;;;;;;-3.32;96.88;100207.52;1800335;78;20960;-73
2021/01/13 01:53:47;;;;;;;1999.90;999.90;;;;;;;-3.32;97.07;100193.99;1794719;78;21015;-70
2021/01/13 01:56:26;;;;;;;1999.90;999.90;;;;;;;-3.32;97.25;100166.93;1792854;78;21018;-70
2021/01/13 01:59:06;;;;;;;1999.90;999.90;;;;;;;-3.35;97.43;100172.27;1799800;78;21377;-73
2021/01/13 02:01:41;;;;;;;1999.90;999.90;;;;;;;-3.36;97.53;100148.14;1798628;78;21021;-70
2021/01/13 02:04:23;;;;;;;1999.90;999.90;;;;;;;-3.36;97.75;100136.80;1800294;78;21099;-74
2021/01/13 02:07:29;;;;;;;1999.90;999.90;;;;;;;-3.37;97.87;100131.08;1794039;78;21639;-73
2021/01/13 02:09:57;;;;;;;;;;;;;;;-3.38;98.01;100125.89;1801692;78;20959;-69
2021/01/13 02:12:30;;;;;;;1999.90;999.90;;;;;;;-3.41;98.15;100136.65;1795748;78;22361;-74
2021/01/13 02:14:58;;;;;;;1999.90;999.90;;;;;;;-3.41;98.31;100118.23;1798525;78;20979;-75
2021/01/13 02:17:32;;;;;;;1999.90;999.90;;;;;;;-3.40;98.41;100092.83;1792982;78;21104;-73
2021/01/13 02:20:07;;;;;;;1999.90;999.90;;;;;;;-3.40;98.44;100083.36;1796245;78;20962;-73
2021/01/13 02:22:39;;;;;;;1999.90;999.90;;;;;;;-3.39;98.48;100074.19;1800574;78;21087;-73
2021/01/13 02:25:22;;;;;;;1999.90;999.90;;;;;;;-3.38;98.48;100067.72;1791024;78;21135;-70
2021/01/13 02:28:09;;;;;;;1999.90;999.90;;;;;;;-3.36;98.49;100053.44;1796948;78;20980;-70
2021/01/13 02:31:07;;;;;;;1999.90;999.90;;;;;;;-3.35;98.45;100050.50;1770794;79;21499;-70
2021/01/13 02:34:04;;;;;;;1999.90;999.90;;;;;;;-3.35;98.30;100056.44;1763155;78;21110;-74
2021/01/13 02:37:01;;;;;;;1999.90;999.90;;;;;;;-3.33;98.13;100063.27;1811219;76;28714;-68
2021/01/13 02:39:31;;;;;;;1999.90;999.90;;;;;;;-3.41;97.91;100067.66;1757310;79;20949;-70
2021/01/13 02:41:59;;;;;;;1999.90;999.90;;;;;;;-3.43;97.82;100057.59;1757975;79;21219;-71
2021/01/13 02:44:30;;;;;;;1999.90;999.90;;;;;;;-3.45;97.65;100055.64;1774658;79;21541;-70
2021/01/13 02:47:07;;;;;;;1999.90;999.90;;;;;;;-3.45;97.65;100027.23;1779191;79;20965;-70
2021/01/13 02:49:40;;;;;;;1999.90;999.90;;;;;;;-3.45;97.66;99999.36;1770175;79;21353;-72
2021/01/13 02:52:18;;;;;;;1999.90;999.90;;;;;;;-3.47;97.67;99993.34;1786676;79;20941;-69
2021/01/13 02:54:55;;;;;;;1999.90;999.90;;;;;;;-3.47;97.76;99985.23;1767956;79;21384;-69
2021/01/13 02:57:29;;;;;;;1999.90;999.90;;;;;;;-3.50;97.87;99982.98;1782733;78;21118;-68
2021/01/13 02:59:57;;;;;;;1999.90;999.90;;;;;;;-3.51;98.00;99975.92;1775996;79;20937;-69
2021/01/13 03:02:35;;;;;;;1999.90;999.90;;;;;;;-3.55;98.14;99964.74;1772015;79;21063;-68
2021/01/13 03:05:05;;;;;;;1999.90;999.90;;;;;;;-3.55;98.27;99946.34;1767962;79;21086;-73
2021/01/13 03:07:37;;;;;;;1999.90;999.90;;;;;;;-3.57;98.38;99928.98;1790099;79;21558;-68
2021/01/13 03:10:13;;;;;;;1999.90;999.90;;;;;;;-3.61;98.62;99905.63;1772962;79;21002;-68
2021/01/13 03:12:49;;;;;;;1999.90;999.90;;;;;;;-3.60;98.98;99911.34;1881896;73;28167;-72
2021/01/13 03:15:19;;;;;;;1999.90;999.90;;;;;;;-3.69;99.20;99899.20;1857293;76;20975;-68
2021/01/13 03:18:08;;;;;;;1999.90;999.90;;;;;;;-3.71;99.48;99885.09;1867531;76;21351;-68
2021/01/13 03:20:52;;;;;;;1999.90;999.90;;;;;;;-3.73;99.67;99866.09;1868421;76;20951;-72
2021/01/13 03:23:43;;;;;;;1999.90;999.90;;;;;;;-3.74;99.89;99861.75;1861913;76;20908;-71
2021/01/13 03:26:12;;;;;;;1999.90;999.90;;;;;;;-3.76;100.00;99859.27;1862680;76;21564;-72
2021/01/13 03:28:41;;;;;;;1999.90;999.90;;;;;;;-3.78;100.00;99850.58;1845154;76;20979;-71
2021/01/13 03:31:16;;;;;;;1999.90;999.90;;;;;;;-3.79;100.00;99852.98;1869267;76;21518;-68
2021/01/13 03:34:07;;;;;;;1999.90;999.90;;;;;;;-3.80;100.00;99875.66;1829144;76;20914;-73
2021/01/13 03:37:01;;;;;;;1999.90;999.90;;;;;;;-3.82;100.00;99883.72;1853614;76;20971;-73
2021/01/13 03:39:37;;;;;;;1999.90;999.90;;;;;;;-3.83;100.00;99895.58;1862361;76;20943;-70
2021/01/13 03:42:17;;;;;;;1999.90;999.90;;;;;;;-3.85;100.00;99913.39;1859486;76;21564;-73
2021/01/13 03:44:46;;;;;;;1999.90;999.90;;;;;;;-3.83;100.00;99953.71;1864851;76;21192;-73
2021/01/13 03:47:40;;;;;;;1999.90;999.90;;;;;;;-3.82;100.00;99989.98;1863539;76;20990;-72
2021/01/13 03:50:24;;;;;;;1999.90;999.90;;;;;;;-3.79;100.00;99973.83;1859230;76;21101;-73
2021/01/13 03:53:01;;;;;;;1999.90;999.90;;;;;;;-3.76;100.00;99969.31;1857728;76;20936;-70
2021/01/13 03:55:31;;;;;;;1999.90;999.90;;;;;;;-3.74;100.00;99981.55;1864463;76;20916;-73
2021/01/13 03:58:15;;;;;;;1999.90;999.90;;;;;;;-3.72;100.00;99988.09;1860445;75;21186;-70
2021/01/13 04:01:01;;;;;;;1999.90;999.90;;;;;;;-3.71;100.00;99981.09;1854168;76;26574;-70
2021/01/13 04:03:32;;;;;;;1999.90;999.90;;;;;;;-3.69;100.00;99970.87;1860910;76;20939;-70
2021/01/13 04:06:09;;;;;;;1999.90;999.90;;;;;;;-3.67;100.00;99953.89;1867981;76;20927;-70
2021/01/13 04:08:42;;;;;;;1999.90;999.90;;;;;;;-3.65;100.00;99927.44;1861903;76;20896;-70
2021/01/13 04:11:15;;;;;;;1999.90;999.90;;;;;;;-3.64;100.00;99892.58;1868212;74;21360;-72
2021/01/13 04:13:47;;;;;;;1999.90;999.90;;;;;;;-3.63;100.00;99856.36;1853700;76;21513;-72
2021/01/13 04:16:17;;;;;;;1999.90;999.90;;;;;;;-3.60;100.00;99830.73;1867420;76;21197;-70
2021/01/13 04:18:47;;;;;;;1999.90;999.90;;;;;;;-3.60;100.00;99793.69;1855124;76;21090;-72
2021/01/13 04:21:16;;;;;;;1999.90;999.90;;;;;;;-3.59;100.00;99790.45;1860205;76;21023;-72
2021/01/13 04:23:45;;;;;;;1999.90;999.90;;;;;;;-3.59;100.00;99779.11;1862963;76;20979;-73
2021/01/13 04:26:13;;;;;;;1999.90;999.90;;;;;;;-3.59;100.00;99772.87;1854060;76;21174;-70
2021/01/13 04:28:41;;;;;;;1999.90;999.90;;;;;;;-3.59;100.00;99779.63;1860417;76;20968;-70
2021/01/13 04:31:10;;;;;;;1999.90;999.90;;;;;;;-3.57;100.00;99791.04;1854071;76;20966;-71
2021/01/13 04:33:38;;;;;;;1999.90;999.90;;;;;;;-3.57;100.00;99809.45;1856547;76;21532;-71
2021/01/13 04:36:08;;;;;;;1999.90;999.90;;;;;;;-3.54;100.00;99812.73;1852571;76;21635;-71
2021/01/13 04:38:36;;;;;;;1999.90;999.90;;;;;;;-3.53;100.00;99811.16;1863826;76;20951;-71
2021/01/13 04:41:08;;;;;;;1999.90;999.90;;;;;;;-3.51;100.00;99815.80;1859982;76;21117;-71
2021/01/13 04:43:58;;;;;;;1999.90;999.90;;;;;;;-3.50;100.00;99805.27;1864218;76;21509;-72
2021/01/13 04:46:38;;;;;;;1999.90;999.90;;;;;;;-3.43;100.00;99784.86;1870642;75;28180;-69
2021/01/13 04:49:21;;;;;;;1999.90;999.90;;;;;;;-3.48;100.00;99789.63;1811653;79;21538;-70
2021/01/13 04:51:49;;;;;;;1999.90;999.90;;;;;;;-3.47;100.00;99795.33;1772469;80;21346;-70
2021/01/13 04:54:19;;;;;;;1999.90;999.90;;;;;;;-3.46;100.00;99782.10;1709761;81;21175;-70
2021/01/13 04:56:59;;;;;;;1999.90;999.90;;;;;;;-3.44;100.00;99771.87;1764196;80;20997;-70
2021/01/13 05:00:01;;;;;;;1999.90;999.90;;;;;;;-3.42;100.00;99761.63;1762723;81;21609;-70
2021/01/13 05:02:44;;;;;;;1999.90;999.90;;;;;;;-3.41;100.00;99739.46;1770154;81;20976;-69
2021/01/13 05:05:21;;;;;;;1999.90;999.90;;;;;;;-3.41;100.00;99714.58;1766780;81;22371;-70
2021/01/13 05:08:15;;;;;;;1999.90;999.90;;;;;;;-3.40;100.00;99700.52;1767446;80;21135;-71
2021/01/13 05:10:43;;;;;;;1999.90;999.90;;;;;;;-3.39;100.00;99698.93;1768639;81;21091;-71
2021/01/13 05:13:16;;;;;;;1999.90;999.90;;;;;;;-3.39;100.00;99699.46;1706505;81;20997;-71
2021/01/13 05:15:56;;;;;;;1999.90;999.90;;;;;;;-3.40;100.00;99674.29;1768549;81;20976;-70
2021/01/13 05:18:51;;;;;;;1999.90;999.90;;;;;;;-3.39;100.00;99678.64;1768981;80;21804;-69
2021/01/13 05:21:27;;;;;;;1999.90;999.90;;;;;;;-3.33;100.00;99668.75;1815018;76;28608;-70
2021/01/13 05:23:57;;;;;;;1999.90;999.90;;;;;;;-3.38;100.00;99648.35;1781681;79;20999;-69
2021/01/13 05:26:25;;;;;;;1999.90;999.90;;;;;;;-3.39;100.00;99650.23;1790296;79;21361;-69
2021/01/13 05:29:20;;;;;;;1999.90;999.90;;;;;;;-3.37;100.00;99654.05;1784696;79;21018;-70
2021/01/13 05:31:49;;;;;;;1999.90;999.90;;;;;;;-3.38;100.00;99653.77;1782192;79;20953;-69
2021/01/13 05:34:18;;;;;;;1999.90;999.90;;;;;;;-3.40;100.00;99628.30;1787551;79;21572;-70
2021/01/13 05:37:16;;;;;;;1999.90;999.90;;;;;;;-3.38;100.00;99612.65;1784568;79;20906;-70
2021/01/13 05:39:46;;;;;;;1999.90;999.90;;;;;;;-3.38;100.00;99614.00;1783896;79;21382;-69
2021/01/13 05:42:17;;;;;;;1999.90;999.90;;;;;;;-3.35;100.00;99609.98;1787883;79;21122;-69
2021/01/13 05:44:46;;;;;;;1999.90;999.90;;;;;;;-3.33;100.00;99617.34;1785699;79;20998;-70
2021/01/13 05:47:53;;;;;;;1999.90;999.90;;;;;;;-3.32;100.00;99600.04;1783561;79;21162;-69
2021/01/13 05:50:20;;;;;;;;;;;;;;;-3.29;100.00;99603.62;1791816;79;20913;-70
2021/01/13 05:52:50;;;;;;;1999.90;999.90;;;;;;;-3.28;100.00;99608.78;1783475;79;21476;-70
2021/01/13 05:55:21;;;;;;;1999.90;999.90;;;;;;;-3.26;100.00;99598.55;1790501;79;20996;-70
2021/01/13 05:57:59;;;;;;;1999.90;999.90;;;;;;;-3.27;100.00;99594.20;1785237;79;21589;-71
2021/01/13 06:00:31;;;;;;;1999.90;999.90;;;;;;;-3.25;100.00;99593.95;1782979;79;21063;-71
2021/01/13 06:03:03;;;;;;;1999.90;999.90;;;;;;;-3.23;100.00;99581.00;1783270;79;21091;-70
2021/01/13 06:05:34;;;;;;;1999.90;999.90;;;;;;;-3.21;100.00;99572.11;1791720;79;21209;-71
2021/01/13 06:08:04;;;;;;;1999.90;999.90;;;;;;;-3.19;100.00;99561.86;1784742;79;20988;-71
2021/01/13 06:10:36;;;;;;;1999.90;999.90;;;;;;;-3.16;100.00;99556.50;1795293;79;21014;-71
2021/01/13 06:13:05;;;;;;;1999.90;999.90;;;;;;;-3.13;100.00;99561.42;1782573;79;20988;-70
2021/01/13 06:15:34;;;;;;;1999.90;999.90;;;;;;;-3.11;100.00;99560.11;1795185;79;21599;-71
2021/01/13 06:18:02;;;;;;;1999.90;999.90;;;;;;;-3.08;100.00;99566.39;1782799;79;22210;-72
2021/01/13 06:20:30;;;;;;;1999.90;999.90;;;;;;;-3.05;100.00;99579.97;1780311;78;21008;-71
2021/01/13 06:22:59;;;;;;;1999.90;999.90;;;;;;;-3.02;100.00;99580.84;1783864;79;20988;-71
2021/01/13 06:25:28;;;;;;;1999.90;999.90;;;;;;;-2.99;100.00;99589.30;1786024;79;21554;-71
2021/01/13 06:28:27;;;;;;;1999.90;999.90;;;;;;;-2.95;100.00;99590.45;1780787;79;21148;-71
2021/01/13 06:31:07;;;;;;;1999.90;999.90;;;;;;;-2.90;100.00;99589.72;1781624;79;21380;-71
2021/01/13 06:33:57;;;;;;;1999.90;999.90;;;;;;;-2.86;100.00;99585.98;1781213;79;21115;-70
2021/01/13 06:36:51;;;;;;;1999.90;999.90;;;;;;;-2.83;100.00;99577.38;1785109;79;21508;-71
2021/01/13 06:39:33;;;;;;;1999.90;999.90;;;;;;;-2.74;100.00;99586.73;1830484;76;28218;-72
2021/01/13 06:42:01;;;;;;;1999.90;999.90;;;;;;;-2.77;100.00;99581.28;1792646;79;20989;-72
2021/01/13 06:44:48;;;;;;;1999.90;999.90;;;;;;;-2.74;100.00;99582.14;1789354;79;22285;-71
2021/01/13 06:47:16;;;;;;;1999.90;999.90;;;;;;;-2.71;100.00;99573.53;1785630;79;20953;-72
2021/01/13 06:49:48;;;;;;;1999.90;999.90;;;;;;;-2.68;100.00;99568.97;1785481;79;20989;-72
2021/01/13 06:52:28;;;;;;;1999.90;999.90;;;;;;;-2.66;100.00;99563.31;1783025;79;20968;-71
2021/01/13 06:54:59;;;;;;;1999.90;999.90;;;;;;;-2.65;100.00;99550.87;1782118;79;20898;-72
2021/01/13 06:57:30;;;;;;;1999.90;999.90;;;;;;;-2.61;100.00;99527.64;1779921;79;21399;-72
2021/01/13 06:59:58;;;;;;;1999.90;999.90;;;;;;;-2.57;100.00;99528.50;1782086;79;20952;-70
2021/01/13 07:02:34;;;;;;;1999.90;999.90;;;;;;;-2.55;100.00;99516.34;1786433;79;21061;-69
2021/01/13 07:05:03;;;;;;;1999.90;999.90;;;;;;;-2.52;100.00;99513.14;1783805;79;21083;-70
2021/01/13 07:07:31;;;;;;;1999.90;999.90;;;;;;;-2.50;100.00;99505.59;1788916;78;21548;-70
2021/01/13 07:09:59;;;;;;;1999.90;999.90;;;;;;;-2.46;100.00;99501.84;1785343;79;21189;-70
2021/01/13 07:12:27;;;;;;;1999.90;999.90;;;;;;;-2.43;100.00;99497.28;1782722;79;20949;-70
2021/01/13 07:14:57;;;;;;;1999.90;999.90;;;;;;;-2.42;100.00;99479.42;1782606;79;21545;-70
2021/01/13 07:17:27;;;;;;;1999.90;999.90;;;;;;;-2.40;100.00;99485.41;1784007;78;21127;-70
2021/01/13 07:19:56;;;;;;;1999.90;999.90;;;;;;;-2.37;100.00;99470.01;1786954;79;20992;-71
2021/01/13 07:22:26;;;;;;;1999.90;999.90;;;;;;;-2.34;100.00;99453.78;1785662;78;21387;-69
2021/01/13 07:24:54;;;;;;;1999.90;999.90;;;;;;;-2.30;100.00;99442.72;1778978;79;20961;-69
2021/01/13 07:27:23;;;;;;;1999.90;999.90;;;;;;;-2.26;100.00;99434.38;1786056;79;21550;-70
2021/01/13 07:29:51;;;;;;;1999.90;999.90;;;;;;;-2.22;100.00;99436.86;1778523;79;21180;-70
2021/01/13 07:32:28;;;;;;;1999.90;999.90;;;;;;;-2.18;100.00;99447.48;1754894;79;21064;-71
2021/01/13 07:34:55;;;;;;;1999.90;999.90;;;;;;;-2.14;100.00;99441.02;1782934;79;22333;-70
2021/01/13 07:37:24;;;;;;;1999.90;999.90;;;;;;;-2.11;100.00;99439.16;1704371;79;20961;-70
2021/01/13 07:40:30;;;;;;;1999.90;999.90;;;;;;;-2.07;100.00;99456.02;1778072;79;21146;-71
2021/01/13 07:43:11;;;;;;;1999.90;999.90;;;;;;;-2.04;100.00;99431.66;1783978;79;21577;-70
2021/01/13 07:45:43;;;;;;;1999.90;999.90;;;;;;;-2.02;100.00;99453.38;1788456;79;21078;-71
2021/01/13 07:48:26;;;;;;;1999.90;999.90;;;;;;;-1.98;100.00;99462.64;1783196;79;21375;-71
2021/01/13 07:50:55;;;;;;;1999.90;999.90;;;;;;;-1.93;100.00;99461.06;1788133;79;21036;-71
2021/01/13 07:53:28;;;;;;;1999.90;999.90;;;;;;;-1.89;100.00;99447.28;1728322;79;21162;-70
2021/01/13 07:55:59;;;;;;;1999.90;999.90;;;;;;;-1.83;100.00;99427.28;1790897;79;21074;-71
2021/01/13 07:58:30;;;;;;;1999.90;999.90;;;;;;;-1.78;100.00;99427.33;1783584;79;20953;-72
2021/01/13 08:01:56;;;;;;;1999.90;999.90;;;;;;;-1.68;100.00;99413.87;1881879;75;28122;-72
2021/01/13 08:04:45;;;;;;;1999.90;999.90;;;;;;;-1.67;100.00;99389.20;1789372;78;20952;-69
2021/01/13 08:07:16;;;;;;;1999.90;999.90;;;;;;;-1.58;100.00;99356.99;1778988;79;21275;-73
2021/01/13 08:09:49;;;;;;;1999.90;999.90;;;;;;;-1.51;100.00;99352.17;1782999;79;20925;-72
2021/01/13 08:12:31;;;;;;;1999.90;999.90;;;;;;;-1.48;100.00;99334.02;1782088;80;21107;-70
2021/01/13 08:15:54;;;;;;;1999.90;999.90;;;;;;;-1.43;100.00;99344.91;1741745;80;21154;-71
2021/01/13 08:19:09;;;;;;;1999.90;999.90;;;;;;;-1.37;100.00;99359.34;1768461;80;21004;-71
2021/01/13 08:21:57;;;;;;;1999.90;999.90;;;;;;;-1.27;100.00;99335.52;1867717;76;28126;-72
2021/01/13 08:24:25;;;;;;;1999.90;999.90;;;;;;;-1.28;100.00;99339.31;1824797;77;20937;-73
2021/01/13 08:26:47;;;;;;;1999.90;999.90;;;;;;;-1.26;100.00;99333.90;1837977;77;21812;-72
2021/01/13 08:29:22;;;;;;;1999.90;999.90;;;;;;;-1.21;100.00;99333.12;1828935;77;20997;-73
2021/01/13 08:31:56;;;;;;;;;;;;;;;-1.18;100.00;99343.45;1780529;80;21538;-73
2021/01/13 08:34:46;;;;;;;1999.90;999.90;;;;;;;-1.10;100.00;99338.89;1836521;76;28520;-69
2021/01/13 08:37:14;;;;;;;1999.90;999.90;;;;;;;-1.13;100.00;99328.02;1798533;79;21053;-71
2021/01/13 08:39:43;;;;;;;1999.90;999.90;;;;;;;-1.09;100.00;99335.91;1803310;79;21209;-70
2021/01/13 08:42:26;;;;;;;1999.90;999.90;;;;;;;-1.05;100.00;99336.21;1808278;79;20957;-70
2021/01/13 08:44:54;;;;;;;1999.90;999.90;;;;;;;-1.03;100.00;99321.83;1807609;79;20973;-72
2021/01/13 08:47:25;;;;;;;1999.90;999.90;;;;;;;-0.98;100.00;99325.94;1768946;79;20968;-72
2021/01/13 08:50:14;;;;;;;1999.90;999.90;;;;;;;-0.94;100.00;99318.08;1810575;79;21594;-73
2021/01/13 08:52:47;;;;;;;1999.90;999.90;;;;;;;-0.91;100.00;99314.84;1816262;78;21367;-73
2021/01/13 08:55:15;;;;;;;1999.90;999.90;;;;;;;-0.88;100.00;99321.91;1806825;79;21040;-74
2021/01/13 08:58:06;;;;;;;1999.90;999.90;;;;;;;-0.84;100.00;99302.66;1806604;79;21032;-72
2021/01/13 09:00:37;;;;;;;1999.90;999.90;;;;;;;-0.82;100.00;99293.70;1815853;79;21127;-72
2021/01/13 09:03:13;;;;;;;1999.90;999.90;;;;;;;-0.79;100.00;99302.67;1810025;79;21009;-71
2021/01/13 09:05:42;;;;;;;1999.90;999.90;;;;;;;-0.77;100.00;99291.55;1798387;79;21195;-71
2021/01/13 09:08:13;;;;;;;1999.90;999.90;;;;;;;-0.75;100.00;99279.87;1813270;79;21147;-70
2021/01/13 09:10:54;;;;;;;1999.90;999.90;;;;;;;-0.72;100.00;99250.81;1770723;79;21155;-68
2021/01/13 09:13:40;;;;;;;1999.90;999.90;;;;;;;-0.71;100.00;99245.11;1812129;79;21095;-71
2021/01/13 09:16:29;;;;;;;1999.90;999.90;;;;;;;-0.69;100.00;99216.31;1804810;79;21052;-69
2021/01/13 09:19:01;;;;;;;1999.90;999.90;;;;;;;-0.65;100.00;99188.88;1804503;79;22122;-72
2021/01/13 09:21:37;;;;;;;1999.90;999.90;;;;;;;-0.62;100.00;99180.73;1802079;79;20965;-69
2021/01/13 09:24:18;;;;;;;1999.90;999.90;;;;;;;-0.55;100.00;99192.16;1795141;79;22800;-71
2021/01/13 09:26:56;;;;;;;1999.90;999.90;;;;;;;-0.59;100.00;99186.99;1760926;80;20965;-72
2021/01/13 09:29:26;;;;;;;1999.90;999.90;;;;;;;-0.58;100.00;99175.04;1781676;78;21202;-69
2021/01/13 09:32:11;;;;;;;1999.90;999.90;;;;;;;-0.55;100.00;99180.75;1783073;80;21086;-69
2021/01/13 09:34:50;;;;;;;1999.90;999.90;;;;;;;-0.48;100.00;99185.38;1864743;75;22741;-70
2021/01/13 09:37:22;;;;;;;1999.90;999.90;;;;;;;-0.50;100.00;99174.51;1849815;77;20964;-70
2021/01/13 09:40:01;;;;;;;1999.90;999.90;;;;;;;-0.48;100.00;99175.88;1851507;77;22713;-70
2021/01/13 09:42:38;;;;;;;1999.90;999.90;;;;;;;-0.46;100.00;99166.91;1839726;76;21097;-72
2021/01/13 09:45:08;;;;;;;1999.90;999.90;;;;;;;-0.45;100.00;99161.73;1835065;77;20933;-70
2021/01/13 09:47:36;;;;;;;1999.90;999.90;;;;;;;-0.43;100.00;99169.08;1848491;77;20976;-72
2021/01/13 09:50:07;;;;;;;1999.90;999.90;;;;;;;-0.41;100.00;99161.47;1848247;77;21071;-73
2021/01/13 09:52:43;;;;;;;1999.90;999.90;;;;;;;-0.40;100.00;99172.62;1849904;77;21406;-70
2021/01/13 09:55:12;;;;;;;1999.90;999.90;;;;;;;-0.38;100.00;99168.27;1842945;77;21506;-70
2021/01/13 09:57:40;;;;;;;1999.90;999.90;;;;;;;-0.36;100.00;99160.11;1776807;80;20984;-72
2021/01/13 10:00:11;;;;;;;1999.90;999.90;;;;;;;-0.34;100.00;99151.14;1802741;78;21012;-71
2021/01/13 10:02:40;;;;;;;1999.90;999.90;;;;;;;-0.32;100.00;99135.92;1799073;78;20953;-70
2021/01/13 10:05:09;;;;;;;1999.90;999.90;;;;;;;-0.33;100.00;99116.63;1791972;78;21199;-70
2021/01/13 10:07:37;;;;;;;1999.90;999.90;;;;;;;-0.31;100.00;99114.45;1788307;78;20950;-71
2021/01/13 10:10:07;;;;;;;1999.90;999.90;;;;;;;-0.30;100.00;99116.08;1797988;78;20992;-71
2021/01/13 10:12:39;;;;;;;1999.90;999.90;;;;;;;-0.28;100.00;99109.83;1789567;78;21003;-72
2021/01/13 10:15:10;;;;;;;1999.90;999.90;;;;;;;-0.26;100.00;99096.77;1796726;78;20981;-70
2021/01/13 10:17:38;;;;;;;1999.90;999.90;;;;;;;-0.26;100.00;99098.13;1789397;78;21257;-71
2021/01/13 10:20:24;;;;;;;1999.90;999.90;;;;;;;-0.25;100.00;99101.66;1794414;78;21025;-70
2021/01/13 10:22:53;;;;;;;1999.90;999.90;;;;;;;-0.23;100.00;99084.53;1800219;78;20945;-70
2021/01/13 10:25:26;;;;;;;1999.90;999.90;;;;;;;-0.21;100.00;99074.20;1797542;78;20996;-71
2021/01/13 10:27:54;;;;;;;1999.90;999.90;;;;;;;-0.21;100.00;99076.38;1788884;78;21024;-71
2021/01/13 10:30:24;;;;;;;1999.90;999.90;;;;;;;-0.18;100.00;99078.55;1802083;78;21200;-72
2021/01/13 10:32:54;;;;;;;1999.90;999.90;;;;;;;-0.15;100.00;99082.62;1791963;78;21175;-73
2021/01/13 10:35:38;;;;;;;1999.90;999.90;;;;;;;-0.13;100.00;99089.96;1801237;78;21115;-73
2021/01/13 10:38:06;;;;;;;1999.90;999.90;;;;;;;-0.12;100.00;99097.03;1780218;79;21531;-71
2021/01/13 10:40:34;;;;;;;1999.90;999.90;;;;;;;-0.10;100.00;99094.85;1764798;80;20996;-72
2021/01/13 10:43:02;;;;;;;1999.90;999.90;;;;;;;-0.08;100.00;99077.17;1794173;79;21696;-71
2021/01/13 10:45:31;;;;;;;1999.90;999.90;;;;;;;-0.09;100.00;99068.74;1749802;79;21167;-72
2021/01/13 10:48:01;;;;;;;1999.90;999.90;;;;;;;-0.07;100.00;99065.20;1796135;79;21582;-72
2021/01/13 10:50:31;;;;;;;1999.90;999.90;;;;;;;-0.07;100.00;99062.48;1786348;79;20921;-70
2021/01/13 10:53:00;;;;;;;1999.90;999.90;;;;;;;-0.05;100.00;99060.84;1794035;79;21503;-72
2021/01/13 10:55:29;;;;;;;1999.90;999.90;;;;;;;-0.04;100.00;99044.25;1788285;79;21371;-71
2021/01/13 10:57:57;;;;;;;1999.90;999.90;;;;;;;-0.03;100.00;99027.39;1793703;79;20992;-71
2021/01/13 11:00:28;;;;;;;1999.90;999.90;;;;;;;-0.03;100.00;99019.23;1781495;78;20995;-70
2021/01/13 11:02:59;;;;;;;1999.90;999.90;;;;;;;-0.02;100.00;99027.11;1772383;80;20998;-70
2021/01/13 11:05:27;;;;;;;1999.90;999.90;;;;;;;-0.01;100.00;99029.29;1777654;80;20966;-70
2021/01/13 11:10:34;;;;;;;1999.90;999.90;;;;;;;0.08;100.00;99001.00;1876435;75;22697;-71
2021/01/13 11:13:08;;;;;;;1999.90;999.90;;;;;;;0.05;100.00;99005.64;1825813;77;20944;-69
2021/01/13 11:15:37;;;;;;;1999.90;999.90;;;;;;;0.04;100.00;99002.11;1825633;78;21849;-68
2021/01/13 11:18:08;;;;;;;1999.90;999.90;;;;;;;0.05;100.00;99000.20;1827192;78;21055;-68
2021/01/13 11:20:36;;;;;;;1999.90;999.90;;;;;;;0.07;100.00;98988.50;1785063;80;21623;-71
2021/01/13 11:23:06;;;;;;;1999.90;999.90;;;;;;;0.08;100.00;98980.05;1780470;80;20973;-71
2021/01/13 11:25:37;;;;;;;1999.90;999.90;;;;;;;0.11;100.00;98975.97;1776047;79;21039;-71
2021/01/13 11:28:13;;;;;;;1999.90;999.90;;;;;;;0.12;100.00;98974.88;1779462;80;21563;-72